Weather observations for the past three days for
Nuevo Laredo International
Metric (Imperial)
Date Time (cdt) Wind (kph) Vis. (km) Weather Sky Cond. Temperature (ºC) Relative Humidity Wind Chill (°C) Heat Index (°C) Pressure Precipitation (cm)
Air Dwpt 6 hour altimeter (cm) sea level (mb) 1 hr 3 hr 6 hr
Max. Min.
07 13:40 NE 19 11.27 Mostly Cloudy BKN030 27 19 62% 28 76 0.0
07 12:40 NE 22 11.27 Overcast OVC030 26 19 65% 27 76.07 1012.7
07 11:40 N 17 9.66 Overcast OVC025 25 19 69% 26 76.07 0.0
07 10:40 NE 11 8.05 Overcast OVC025 24 19 74% 25 76.07 0.0
07 09:40 NE 15 8.05 Overcast OVC020 23 19 78% 76.07 1012.6
07 08:46 NE 9 8.05 Overcast OVC020 23 18 74% 76.05 0.0
07 07:03 N 15 8.05 Overcast OVC020 23 18 74% 75.95 1010.6
06 19:40 NE 13 12.87 A Few Clouds FEW220 34 22 50% 38 75.51 0.0
06 18:44 N 26 12.87 Partly Cloudy SCT220 34 22 50% 38 75.46 1004.2
06 17:40 NE 19 12.87 Partly Cloudy SCT220 34 22 50% 38 75.41 0.0
06 16:40 NE 13 8.05 Mostly Cloudy SCT030 BKN200 33 23 56% 38 75.46 0.0
06 15:40 N 15 6.44 Mostly Cloudy BKN030 BKN200 33 23 56% 38 75.51 1005.2
06 14:40 NW 15 6.44 Overcast OVC025 32 23 59% 37 75.59 0.0
06 13:40 N 13 6.44 Overcast OVC025 32 23 59% 37 75.64 0.0
06 12:40 Calm 6.44 Overcast OVC025 30 23 66% 34 75.67 1007.2
06 11:40 Calm 4.83 Overcast with Haze OVC025 29 23 70% 33 75.67 0.0
06 10:40 Calm 4.83 Overcast with Haze OVC025 28 23 74% 31 75.62 0.0
06 09:40 E 13 4.83 Overcast with Haze OVC020 28 23 74% 31 75.59 1006.1
06 08:41 E 13 6.44 Overcast OVC020 27 23 79% 30 75.57 0.0
06 07:00 Calm 11.27 Overcast OVC200 27 23 79% 30 75.51 1004.5
05 19:40 E 24 16.09 Mostly Cloudy BKN200 36 21 42% 40 75.16 0.0
05 18:40 E 20 16.09 Mostly Cloudy BKN220 38 20 35% 41 75.13 1000.1
05 17:40 E 13 16.09 Mostly Cloudy BKN220 38 19 33% 40 75.18 0.0
05 16:40 E 17 16.09 Partly Cloudy SCT220 38 21 37% 42 75.21 0.0
05 15:40 SE 15 16.09 Partly Cloudy SCT220 37 21 39% 41 75.26 1001.9
05 14:40 Calm 16.09 Partly Cloudy SCT220 35 20 41% 38 75.36 0.0
05 13:40 SE 17 16.09 Partly Cloudy SCT220 34 21 47% 37 75.44 0.0
05 12:40 SE 13 16.09 Partly Cloudy SCT220 33 21 49% 36 75.49 1004.9
05 11:40 S 15 16.09 Partly Cloudy SCT200 30 22 62% 33 75.54 0.0
05 10:40 SE 19 16.09 Partly Cloudy SCT020 SCT200 28 22 70% 31 75.57 0.0
05 09:40 S 11 11.27 Mostly Cloudy SCT015 BKN200 26 22 79% 28 75.57 1005.8
05 08:40 SE 20 9.66 Mostly Cloudy SCT015 BKN200 24 21 83% 24 75.57 0.0
05 07:00 SE 13 9.66 Mostly Cloudy BKN200 22 21 94% 75.51 1005.1
04 19:40 SE 20 16.09 Overcast OVC200 29 19 55% 30 75.62 0.0
04 18:40 SE 20 16.09 Mostly Cloudy BKN200 30 19 52% 31 75.62 1006.9
04 17:40 SE 22 16.09 Mostly Cloudy BKN200 30 19 52% 31 75.67 0.0
04 16:40 SE 20 16.09 Overcast OVC200 30 19 52% 31 75.72 0.0
04 15:40 SE 20 16.09 Overcast OVC040 29 19 55% 30 75.79 1009.0
04 14:40 SE 26 16.09 Overcast OVC025 28 18 55% 29 75.87 0.0
Date Time (cdt) Wind (kph) Vis. (km) Weather Sky Cond. Air Dwpt Max. Min. Relative Humidity Wind Chill (°C) Heat Index (°C) altimeter (cm) sea level (mb) 1 hr 3 hr 6 hr
6 hour
Temperature (ºC) Pressure Precipitation (cm)